Terminal Aerodrome Forecast
Issued by NWS Mt. Holly, NJ

Home | Current Version | Previous Version | Text Only | Print | Product List | Glossary On
Versions: 1 2 3 4 5 6 7 8 9 10 11 12 13 14 15 16 17 18
000
FTUS41 KPHI 141120
TAFACY
TAF
KACY 141120Z 1412/1512 24008KT P6SM BKN080
     FM141500 27013G23KT P6SM SCT050
     FM142200 32011KT P6SM SCT200
     FM150100 32007KT P6SM SCT200
     FM150400 VRB03KT P6SM BKN200=

USA.gov is the U.S. government's official web portal to all federal, state and local government web resources and services.